Currently 70°F in Hemet, California, USA
70°F
87°F / 60°F
calm
0.00"
Saturday, January 16, 2021 6:21 PM PST

Hemet, California Weather Summary
Last 36 Hours

Temperature Winds Hourly Humidity Dewpoint
Time Report Norm Report Norm Max Gusts Precip. Rpt. Norm Rpt. Norm Pressure
1Sat 06:21 PM  70.3°F  55°F  calm  1 mph  none  0.00"  17%  44%  22°F  32°F  30.00"
Sat 06:00 PM  70.5°F  55°F  calm  1 mph  none  0.00"  17%  43%  22°F  32°F  29.99"
Sat 05:00 PM  78.3°F  60°F  calm  1 mph  none  0.00"  15%  39%  25°F  34°F  29.97"
Sat 04:00 PM  84.7°F  64°F  calm  1 mph  7 mph  0.00"  12%  34%  25°F  34°F  29.96"
Sat 03:00 PM  85.8°F  65°F  3 mph W  1 mph  7 mph  0.00"  11%  32%  23°F  33°F  29.96"
2Sat 02:32 PM  87.1°F  65°F  1 mph SW  2 mph  5 mph  ----  11%  32%  24°F  33°F  29.96"
Sat 02:00 PM  86.4°F  65°F  1 mph W  2 mph  6 mph  0.00"  11%  32%  24°F  33°F  29.96"
Sat 01:00 PM  83.8°F  64°F  2 mph W  1 mph  6 mph  0.00"  11%  34%  22°F  33°F  29.97"
Sat 12:00 PM  79.9°F  62°F  3 mph W  1 mph  6 mph  0.00"  11%  36%  19°F  34°F  29.99"
Sat 11:00 AM  78.4°F  60°F  calm  1 mph  5 mph  0.00"  11%  40%  17°F  35°F  30.02"
Sat 10:00 AM  74.7°F  57°F  calm  calm  3 mph  0.00"  19%  44%  28°F  35°F  30.04"
Sat 09:00 AM  70.3°F  55°F  calm  calm  5 mph  0.00"  20%  45%  26°F  33°F  30.03"
Sat 08:00 AM  63.3°F  50°F  2 mph NE  calm  3 mph  0.00"  15%  48%  13°F  30°F  30.02"
Sat 07:00 AM  60.4°F  48°F  2 mph NE  1 mph  5 mph  0.00"  14%  48%  9°F  28°F  30.03"
Sat 06:00 AM  60.3°F  48°F  2 mph NE  1 mph  3 mph  0.00"  14%  48%  9°F  28°F  30.03"
3Sat 05:55 AM  60.1°F  48°F  2 mph NE  1 mph  3 mph  ----  14%  48%  9°F  28°F  30.03"
Sat 05:00 AM  63.7°F  48°F  2 mph NE  1 mph  5 mph  0.00"  11%  48%  6°F  28°F  30.02"
Sat 04:00 AM  63.1°F  48°F  2 mph NE  1 mph  3 mph  0.00"  11%  48%  5°F  29°F  30.02"
Sat 03:00 AM  62.8°F  49°F  2 mph NE  1 mph  5 mph  0.00"  12%  48%  7°F  29°F  30.03"
Sat 02:00 AM  61.9°F  49°F  2 mph E  1 mph  5 mph  0.00"  12%  48%  6°F  29°F  30.05"
Sat 01:00 AM  63.1°F  49°F  2 mph NE  1 mph  3 mph  0.00"  12%  48%  7°F  29°F  30.05"
Sat 12:00 AM  66.4°F  50°F  1 mph NE  1 mph  3 mph  0.00"  11%  48%  8°F  30°F  30.04"
Fri 11:00 PM  64.2°F  50°F  2 mph NE  1 mph  3 mph  0.00"  15%  47%  14°F  30°F  30.06"
Fri 10:00 PM  64.2°F  51°F  1 mph NE  1 mph  5 mph  0.00"  13%  47%  10°F  30°F  30.08"
Fri 09:00 PM  64.8°F  52°F  3 mph NE  1 mph  3 mph  0.00"  13%  46%  11°F  31°F  30.08"
Fri 08:00 PM  66.4°F  53°F  2 mph E  1 mph  5 mph  0.00"  13%  45%  12°F  31°F  30.09"
Fri 07:00 PM  68.2°F  54°F  2 mph E  1 mph  5 mph  0.00"  12%  45%  11°F  32°F  30.09"
Fri 06:00 PM  69.4°F  56°F  1 mph SE  1 mph  3 mph  0.00"  13%  43%  14°F  33°F  30.09"
Fri 05:00 PM  78.4°F  60°F  calm  1 mph  3 mph  0.00"  9%  40%  12°F  34°F  30.09"
Fri 04:00 PM  84.4°F  64°F  2 mph S  1 mph  3 mph  0.00"  7%  34%  11°F  34°F  30.09"
Fri 03:00 PM  87.3°F  65°F  2 mph W  1 mph  5 mph  0.00"  8%  32%  16°F  33°F  30.10"
Fri 02:00 PM  85.1°F  65°F  calm  2 mph  3 mph  0.00"  9%  32%  18°F  34°F  30.10"
Fri 01:00 PM  82.6°F  64°F  calm  1 mph  3 mph  0.00"  11%  33%  21°F  34°F  30.13"
Fri 12:00 PM  77.2°F  62°F  calm  1 mph  6 mph  0.00"  16%  36%  26°F  34°F  30.16"
Fri 11:00 AM  77.4°F  60°F  calm  1 mph  none  0.00"  13%  40%  21°F  34°F  30.20"
Fri 10:00 AM  72.9°F  57°F  calm  calm  none  0.00"  14%  44%  19°F  35°F  30.22"
Fri 09:00 AM  68.9°F  55°F  calm  calm  3 mph  0.00"  13%  45%  14°F  33°F  30.22"
Fri 08:00 AM  61.2°F  50°F  2 mph NE  calm  5 mph  0.00"  17%  48%  14°F  30°F  30.20"
Fri 07:00 AM  59.5°F  48°F  3 mph SE  1 mph  7 mph  0.00"  16%  48%  11°F  28°F  30.19"

  1. Current weather data. No green row appears if the current weather data is also the high or low for the current day.
  2. High temperature for the current day.
  3. Low temperature for the current day.

The Hemet weather pages are a service of WeatherCurrents. Hemet, California is located in the San Jacinto Valley, in western Riverside County, at the foot of the San Jacinto mountains.
Copyright ©2021  WeatherCurrents. All rights reserved. - Submit questions and comments - Privacy Policy

This page automatically refreshes every 10 minutes.